sensor_id;sensor_type;location;lat;lon;timestamp;P1;durP1;ratioP1;P2;durP2;ratioP2
39442;SDS011;25147;52.142;9.960;2024-02-26T00:00:23;7.50;;;4.10;;
39442;SDS011;25147;52.142;9.960;2024-02-26T00:02:49;4.47;;;3.93;;
39442;SDS011;25147;52.142;9.960;2024-02-26T00:05:17;4.43;;;3.33;;
39442;SDS011;25147;52.142;9.960;2024-02-26T00:07:44;4.97;;;3.83;;
39442;SDS011;25147;52.142;9.960;2024-02-26T00:10:12;5.43;;;3.50;;
39442;SDS011;25147;52.142;9.960;2024-02-26T00:12:40;4.50;;;3.00;;
39442;SDS011;25147;52.142;9.960;2024-02-26T00:15:07;4.00;;;3.43;;
39442;SDS011;25147;52.142;9.960;2024-02-26T00:17:35;3.87;;;3.47;;
39442;SDS011;25147;52.142;9.960;2024-02-26T00:20:03;4.37;;;3.60;;
39442;SDS011;25147;52.142;9.960;2024-02-26T00:22:35;4.13;;;3.37;;
39442;SDS011;25147;52.142;9.960;2024-02-26T00:25:02;3.93;;;3.60;;
39442;SDS011;25147;52.142;9.960;2024-02-26T00:27:30;5.67;;;3.80;;
39442;SDS011;25147;52.142;9.960;2024-02-26T00:29:57;4.37;;;3.97;;
39442;SDS011;25147;52.142;9.960;2024-02-26T00:32:23;4.77;;;3.53;;
39442;SDS011;25147;52.142;9.960;2024-02-26T00:34:50;4.47;;;3.90;;
39442;SDS011;25147;52.142;9.960;2024-02-26T00:37:17;4.63;;;3.93;;
39442;SDS011;25147;52.142;9.960;2024-02-26T00:39:45;4.73;;;3.83;;
39442;SDS011;25147;52.142;9.960;2024-02-26T00:42:12;4.77;;;3.83;;
39442;SDS011;25147;52.142;9.960;2024-02-26T00:44:39;4.00;;;3.60;;
39442;SDS011;25147;52.142;9.960;2024-02-26T00:47:06;6.23;;;4.10;;
39442;SDS011;25147;52.142;9.960;2024-02-26T00:49:32;4.30;;;3.87;;
39442;SDS011;25147;52.142;9.960;2024-02-26T00:51:59;3.77;;;3.40;;
39442;SDS011;25147;52.142;9.960;2024-02-26T00:54:26;5.33;;;3.27;;
39442;SDS011;25147;52.142;9.960;2024-02-26T00:56:54;5.93;;;3.90;;
39442;SDS011;25147;52.142;9.960;2024-02-26T00:59:21;4.57;;;4.13;;
39442;SDS011;25147;52.142;9.960;2024-02-26T01:01:48;4.17;;;3.77;;
39442;SDS011;25147;52.142;9.960;2024-02-26T01:04:14;4.10;;;3.70;;
39442;SDS011;25147;52.142;9.960;2024-02-26T01:06:41;3.50;;;3.20;;
39442;SDS011;25147;52.142;9.960;2024-02-26T01:09:08;4.13;;;3.50;;
39442;SDS011;25147;52.142;9.960;2024-02-26T01:11:35;3.67;;;3.37;;
39442;SDS011;25147;52.142;9.960;2024-02-26T01:14:03;3.67;;;3.27;;
39442;SDS011;25147;52.142;9.960;2024-02-26T01:16:30;4.20;;;3.63;;
39442;SDS011;25147;52.142;9.960;2024-02-26T01:18:57;5.00;;;3.53;;
39442;SDS011;25147;52.142;9.960;2024-02-26T01:21:23;4.70;;;3.90;;
39442;SDS011;25147;52.142;9.960;2024-02-26T01:23:52;4.20;;;3.20;;
39442;SDS011;25147;52.142;9.960;2024-02-26T01:26:18;6.00;;;3.30;;
39442;SDS011;25147;52.142;9.960;2024-02-26T01:28:48;4.00;;;3.17;;
39442;SDS011;25147;52.142;9.960;2024-02-26T01:31:16;3.00;;;2.70;;
39442;SDS011;25147;52.142;9.960;2024-02-26T01:33:43;3.97;;;3.30;;
39442;SDS011;25147;52.142;9.960;2024-02-26T01:36:09;4.27;;;3.37;;
39442;SDS011;25147;52.142;9.960;2024-02-26T01:38:37;5.50;;;3.77;;
39442;SDS011;25147;52.142;9.960;2024-02-26T01:41:03;3.93;;;3.47;;
39442;SDS011;25147;52.142;9.960;2024-02-26T01:43:30;3.63;;;3.23;;
39442;SDS011;25147;52.142;9.960;2024-02-26T01:45:57;3.53;;;3.20;;
39442;SDS011;25147;52.142;9.960;2024-02-26T01:48:25;4.23;;;3.33;;
39442;SDS011;25147;52.142;9.960;2024-02-26T01:50:53;3.60;;;3.30;;
39442;SDS011;25147;52.142;9.960;2024-02-26T01:53:19;5.10;;;2.90;;
39442;SDS011;25147;52.142;9.960;2024-02-26T01:55:46;5.50;;;3.10;;
39442;SDS011;25147;52.142;9.960;2024-02-26T01:58:13;2.70;;;2.50;;
39442;SDS011;25147;52.142;9.960;2024-02-26T02:00:40;3.47;;;2.67;;
39442;SDS011;25147;52.142;9.960;2024-02-26T02:03:07;3.27;;;2.97;;
39442;SDS011;25147;52.142;9.960;2024-02-26T02:05:36;3.33;;;3.03;;
39442;SDS011;25147;52.142;9.960;2024-02-26T02:08:07;3.83;;;3.23;;
39442;SDS011;25147;52.142;9.960;2024-02-26T02:10:34;4.40;;;3.00;;
39442;SDS011;25147;52.142;9.960;2024-02-26T02:13:02;3.03;;;2.70;;
39442;SDS011;25147;52.142;9.960;2024-02-26T02:15:28;3.13;;;2.83;;
39442;SDS011;25147;52.142;9.960;2024-02-26T02:17:55;3.27;;;2.90;;
39442;SDS011;25147;52.142;9.960;2024-02-26T02:20:26;3.00;;;2.70;;
39442;SDS011;25147;52.142;9.960;2024-02-26T02:22:58;4.30;;;2.73;;
39442;SDS011;25147;52.142;9.960;2024-02-26T02:25:25;3.07;;;2.73;;
39442;SDS011;25147;52.142;9.960;2024-02-26T02:27:52;3.43;;;2.90;;
39442;SDS011;25147;52.142;9.960;2024-02-26T02:30:20;3.60;;;3.10;;
39442;SDS011;25147;52.142;9.960;2024-02-26T02:32:47;4.80;;;2.80;;
39442;SDS011;25147;52.142;9.960;2024-02-26T02:35:15;3.30;;;3.00;;
39442;SDS011;25147;52.142;9.960;2024-02-26T02:37:43;5.33;;;3.00;;
39442;SDS011;25147;52.142;9.960;2024-02-26T02:40:10;3.40;;;3.10;;
39442;SDS011;25147;52.142;9.960;2024-02-26T02:42:37;4.33;;;3.60;;
39442;SDS011;25147;52.142;9.960;2024-02-26T02:45:04;3.33;;;3.03;;
39442;SDS011;25147;52.142;9.960;2024-02-26T02:47:31;3.97;;;3.23;;
39442;SDS011;25147;52.142;9.960;2024-02-26T02:49:58;3.80;;;3.40;;
39442;SDS011;25147;52.142;9.960;2024-02-26T02:52:24;4.00;;;3.30;;
39442;SDS011;25147;52.142;9.960;2024-02-26T02:54:52;3.23;;;2.93;;
39442;SDS011;25147;52.142;9.960;2024-02-26T02:57:19;4.10;;;2.87;;
39442;SDS011;25147;52.142;9.960;2024-02-26T02:59:46;4.33;;;2.83;;
39442;SDS011;25147;52.142;9.960;2024-02-26T03:02:13;3.77;;;3.10;;
39442;SDS011;25147;52.142;9.960;2024-02-26T03:04:40;5.27;;;3.03;;
39442;SDS011;25147;52.142;9.960;2024-02-26T03:07:06;3.57;;;2.90;;
39442;SDS011;25147;52.142;9.960;2024-02-26T03:09:32;4.70;;;3.80;;
39442;SDS011;25147;52.142;9.960;2024-02-26T03:12:01;4.00;;;3.60;;
39442;SDS011;25147;52.142;9.960;2024-02-26T03:14:27;4.03;;;3.43;;
39442;SDS011;25147;52.142;9.960;2024-02-26T03:16:54;4.77;;;3.90;;
39442;SDS011;25147;52.142;9.960;2024-02-26T03:19:21;4.40;;;3.90;;
39442;SDS011;25147;52.142;9.960;2024-02-26T03:21:48;3.90;;;3.53;;
39442;SDS011;25147;52.142;9.960;2024-02-26T03:24:15;4.70;;;3.10;;
39442;SDS011;25147;52.142;9.960;2024-02-26T03:26:42;3.80;;;3.43;;
39442;SDS011;25147;52.142;9.960;2024-02-26T03:29:10;4.40;;;3.53;;
39442;SDS011;25147;52.142;9.960;2024-02-26T03:31:37;4.60;;;3.50;;
39442;SDS011;25147;52.142;9.960;2024-02-26T03:34:04;4.10;;;3.30;;
39442;SDS011;25147;52.142;9.960;2024-02-26T03:36:30;3.70;;;3.33;;
39442;SDS011;25147;52.142;9.960;2024-02-26T03:38:57;5.37;;;3.00;;
39442;SDS011;25147;52.142;9.960;2024-02-26T03:41:24;4.40;;;3.67;;
39442;SDS011;25147;52.142;9.960;2024-02-26T03:43:51;6.17;;;3.47;;
39442;SDS011;25147;52.142;9.960;2024-02-26T03:46:19;4.43;;;3.33;;
39442;SDS011;25147;52.142;9.960;2024-02-26T03:48:46;4.73;;;3.60;;
39442;SDS011;25147;52.142;9.960;2024-02-26T03:51:13;3.73;;;3.20;;
39442;SDS011;25147;52.142;9.960;2024-02-26T03:53:40;3.67;;;3.30;;
39442;SDS011;25147;52.142;9.960;2024-02-26T03:56:06;5.60;;;2.73;;
39442;SDS011;25147;52.142;9.960;2024-02-26T03:58:34;2.80;;;2.50;;
39442;SDS011;25147;52.142;9.960;2024-02-26T04:01:00;3.10;;;2.77;;
39442;SDS011;25147;52.142;9.960;2024-02-26T04:03:31;3.33;;;2.77;;
39442;SDS011;25147;52.142;9.960;2024-02-26T04:05:58;3.70;;;2.67;;
39442;SDS011;25147;52.142;9.960;2024-02-26T04:08:25;3.10;;;2.60;;
39442;SDS011;25147;52.142;9.960;2024-02-26T04:10:52;4.20;;;2.80;;
39442;SDS011;25147;52.142;9.960;2024-02-26T04:13:19;3.70;;;2.60;;
39442;SDS011;25147;52.142;9.960;2024-02-26T04:15:46;3.03;;;2.73;;
39442;SDS011;25147;52.142;9.960;2024-02-26T04:18:13;5.30;;;3.10;;
39442;SDS011;25147;52.142;9.960;2024-02-26T04:20:41;2.90;;;2.63;;
39442;SDS011;25147;52.142;9.960;2024-02-26T04:23:08;5.23;;;3.20;;
39442;SDS011;25147;52.142;9.960;2024-02-26T04:25:35;5.43;;;3.67;;
39442;SDS011;25147;52.142;9.960;2024-02-26T04:28:02;4.27;;;2.97;;
39442;SDS011;25147;52.142;9.960;2024-02-26T04:30:29;5.27;;;3.33;;
39442;SDS011;25147;52.142;9.960;2024-02-26T04:32:55;4.90;;;3.23;;
39442;SDS011;25147;52.142;9.960;2024-02-26T04:35:22;3.40;;;3.10;;
39442;SDS011;25147;52.142;9.960;2024-02-26T04:37:51;5.17;;;3.50;;
39442;SDS011;25147;52.142;9.960;2024-02-26T04:40:17;3.63;;;3.10;;
39442;SDS011;25147;52.142;9.960;2024-02-26T04:42:44;4.83;;;3.40;;
39442;SDS011;25147;52.142;9.960;2024-02-26T04:45:11;4.50;;;3.70;;
39442;SDS011;25147;52.142;9.960;2024-02-26T04:47:37;4.77;;;3.60;;
39442;SDS011;25147;52.142;9.960;2024-02-26T04:50:05;6.67;;;3.33;;
39442;SDS011;25147;52.142;9.960;2024-02-26T04:52:32;4.93;;;3.47;;
39442;SDS011;25147;52.142;9.960;2024-02-26T04:55:00;6.83;;;3.53;;
39442;SDS011;25147;52.142;9.960;2024-02-26T04:57:27;5.57;;;3.33;;
39442;SDS011;25147;52.142;9.960;2024-02-26T04:59:54;5.33;;;3.40;;
39442;SDS011;25147;52.142;9.960;2024-02-26T05:02:21;5.83;;;3.50;;
39442;SDS011;25147;52.142;9.960;2024-02-26T05:04:48;6.03;;;4.00;;
39442;SDS011;25147;52.142;9.960;2024-02-26T05:07:15;7.90;;;3.77;;
39442;SDS011;25147;52.142;9.960;2024-02-26T05:09:42;5.70;;;4.00;;
39442;SDS011;25147;52.142;9.960;2024-02-26T05:12:11;5.90;;;3.70;;
39442;SDS011;25147;52.142;9.960;2024-02-26T05:14:37;5.37;;;4.00;;
39442;SDS011;25147;52.142;9.960;2024-02-26T05:17:05;5.00;;;4.47;;
39442;SDS011;25147;52.142;9.960;2024-02-26T05:19:32;5.77;;;3.80;;
39442;SDS011;25147;52.142;9.960;2024-02-26T05:21:59;5.83;;;4.00;;
39442;SDS011;25147;52.142;9.960;2024-02-26T05:24:25;6.80;;;4.50;;
39442;SDS011;25147;52.142;9.960;2024-02-26T05:26:53;6.23;;;3.93;;
39442;SDS011;25147;52.142;9.960;2024-02-26T05:29:21;6.20;;;4.63;;
39442;SDS011;25147;52.142;9.960;2024-02-26T05:31:48;5.80;;;4.40;;
39442;SDS011;25147;52.142;9.960;2024-02-26T05:34:15;5.40;;;4.53;;
39442;SDS011;25147;52.142;9.960;2024-02-26T05:36:41;6.00;;;4.97;;
39442;SDS011;25147;52.142;9.960;2024-02-26T05:39:08;5.57;;;4.37;;
39442;SDS011;25147;52.142;9.960;2024-02-26T05:41:37;7.30;;;4.80;;
39442;SDS011;25147;52.142;9.960;2024-02-26T05:44:03;5.93;;;4.90;;
39442;SDS011;25147;52.142;9.960;2024-02-26T05:46:32;4.80;;;4.20;;
39442;SDS011;25147;52.142;9.960;2024-02-26T05:48:59;6.13;;;4.87;;
39442;SDS011;25147;52.142;9.960;2024-02-26T05:51:25;4.63;;;4.17;;
39442;SDS011;25147;52.142;9.960;2024-02-26T05:53:52;6.03;;;4.87;;
39442;SDS011;25147;52.142;9.960;2024-02-26T05:56:20;5.37;;;4.87;;
39442;SDS011;25147;52.142;9.960;2024-02-26T05:58:47;5.20;;;4.33;;
39442;SDS011;25147;52.142;9.960;2024-02-26T06:01:15;6.53;;;5.10;;
39442;SDS011;25147;52.142;9.960;2024-02-26T06:03:43;6.57;;;5.20;;
39442;SDS011;25147;52.142;9.960;2024-02-26T06:06:10;6.03;;;5.40;;
39442;SDS011;25147;52.142;9.960;2024-02-26T06:08:38;5.10;;;4.60;;
39442;SDS011;25147;52.142;9.960;2024-02-26T06:11:05;5.47;;;4.97;;
39442;SDS011;25147;52.142;9.960;2024-02-26T06:13:33;5.97;;;5.27;;
39442;SDS011;25147;52.142;9.960;2024-02-26T06:16:00;6.20;;;5.57;;
39442;SDS011;25147;52.142;9.960;2024-02-26T06:18:27;6.27;;;5.53;;
39442;SDS011;25147;52.142;9.960;2024-02-26T06:20:55;7.80;;;5.47;;
39442;SDS011;25147;52.142;9.960;2024-02-26T06:23:22;7.37;;;5.77;;
39442;SDS011;25147;52.142;9.960;2024-02-26T06:25:49;10.40;;;6.20;;
39442;SDS011;25147;52.142;9.960;2024-02-26T06:28:37;8.10;;;5.97;;
39442;SDS011;25147;52.142;9.960;2024-02-26T06:33:59;7.60;;;5.83;;
39442;SDS011;25147;52.142;9.960;2024-02-26T06:34:53;7.40;;;6.37;;
39442;SDS011;25147;52.142;9.960;2024-02-26T06:37:21;10.70;;;8.70;;
39442;SDS011;25147;52.142;9.960;2024-02-26T06:39:48;7.77;;;7.07;;
39442;SDS011;25147;52.142;9.960;2024-02-26T06:42:46;8.63;;;7.07;;
39442;SDS011;25147;52.142;9.960;2024-02-26T06:45:13;7.87;;;6.90;;
39442;SDS011;25147;52.142;9.960;2024-02-26T06:47:40;8.80;;;6.67;;
39442;SDS011;25147;52.142;9.960;2024-02-26T06:50:08;8.93;;;7.10;;
39442;SDS011;25147;52.142;9.960;2024-02-26T06:52:37;8.80;;;7.23;;
39442;SDS011;25147;52.142;9.960;2024-02-26T06:55:03;12.00;;;7.63;;
39442;SDS011;25147;52.142;9.960;2024-02-26T06:57:33;9.23;;;7.03;;
39442;SDS011;25147;52.142;9.960;2024-02-26T07:00:00;9.77;;;7.07;;
39442;SDS011;25147;52.142;9.960;2024-02-26T07:02:32;12.93;;;7.83;;
39442;SDS011;25147;52.142;9.960;2024-02-26T07:04:59;8.13;;;7.33;;
39442;SDS011;25147;52.142;9.960;2024-02-26T07:07:26;8.77;;;7.87;;
39442;SDS011;25147;52.142;9.960;2024-02-26T07:09:54;9.70;;;7.40;;
39442;SDS011;25147;52.142;9.960;2024-02-26T07:12:21;9.60;;;7.13;;
39442;SDS011;25147;52.142;9.960;2024-02-26T07:14:48;8.47;;;7.67;;
39442;SDS011;25147;52.142;9.960;2024-02-26T07:17:17;10.63;;;7.10;;
39442;SDS011;25147;52.142;9.960;2024-02-26T07:19:59;9.67;;;7.33;;
39442;SDS011;25147;52.142;9.960;2024-02-26T07:22:26;8.40;;;7.60;;
39442;SDS011;25147;52.142;9.960;2024-02-26T07:24:53;11.37;;;7.97;;
39442;SDS011;25147;52.142;9.960;2024-02-26T07:27:19;11.10;;;7.80;;
39442;SDS011;25147;52.142;9.960;2024-02-26T07:29:46;8.87;;;7.97;;
39442;SDS011;25147;52.142;9.960;2024-02-26T07:32:13;13.20;;;8.80;;
39442;SDS011;25147;52.142;9.960;2024-02-26T07:34:41;10.13;;;8.20;;
39442;SDS011;25147;52.142;9.960;2024-02-26T07:37:11;13.57;;;9.10;;
39442;SDS011;25147;52.142;9.960;2024-02-26T07:39:38;10.27;;;9.00;;
39442;SDS011;25147;52.142;9.960;2024-02-26T07:42:04;10.63;;;8.53;;
39442;SDS011;25147;52.142;9.960;2024-02-26T07:44:31;14.80;;;8.37;;
39442;SDS011;25147;52.142;9.960;2024-02-26T07:47:00;9.97;;;8.00;;
39442;SDS011;25147;52.142;9.960;2024-02-26T07:49:29;11.97;;;7.80;;
39442;SDS011;25147;52.142;9.960;2024-02-26T07:52:01;11.43;;;8.47;;
39442;SDS011;25147;52.142;9.960;2024-02-26T07:54:29;10.23;;;7.63;;
39442;SDS011;25147;52.142;9.960;2024-02-26T07:56:56;10.47;;;7.30;;
39442;SDS011;25147;52.142;9.960;2024-02-26T07:59:23;9.67;;;7.60;;
39442;SDS011;25147;52.142;9.960;2024-02-26T08:01:50;7.85;;;6.85;;
39442;SDS011;25147;52.142;9.960;2024-02-26T08:04:17;8.47;;;6.80;;
39442;SDS011;25147;52.142;9.960;2024-02-26T08:06:44;10.63;;;6.57;;
39442;SDS011;25147;52.142;9.960;2024-02-26T08:09:11;8.48;;;7.07;;
39442;SDS011;25147;52.142;9.960;2024-02-26T08:11:43;9.05;;;7.43;;
39442;SDS011;25147;52.142;9.960;2024-02-26T08:14:10;8.07;;;6.67;;
39442;SDS011;25147;52.142;9.960;2024-02-26T08:16:37;10.40;;;6.60;;
39442;SDS011;25147;52.142;9.960;2024-02-26T08:19:04;8.93;;;6.40;;
39442;SDS011;25147;52.142;9.960;2024-02-26T08:21:30;8.73;;;6.83;;
39442;SDS011;25147;52.142;9.960;2024-02-26T08:23:57;9.13;;;7.27;;
39442;SDS011;25147;52.142;9.960;2024-02-26T08:26:24;10.63;;;7.28;;
39442;SDS011;25147;52.142;9.960;2024-02-26T08:28:52;8.52;;;6.95;;
39442;SDS011;25147;52.142;9.960;2024-02-26T08:31:21;10.48;;;6.57;;
39442;SDS011;25147;52.142;9.960;2024-02-26T08:33:48;8.52;;;7.45;;
39442;SDS011;25147;52.142;9.960;2024-02-26T08:36:15;8.50;;;6.10;;
39442;SDS011;25147;52.142;9.960;2024-02-26T08:38:42;8.30;;;6.57;;
39442;SDS011;25147;52.142;9.960;2024-02-26T08:41:09;10.17;;;7.50;;
39442;SDS011;25147;52.142;9.960;2024-02-26T08:43:36;7.20;;;6.00;;
39442;SDS011;25147;52.142;9.960;2024-02-26T08:46:04;6.27;;;5.43;;
39442;SDS011;25147;52.142;9.960;2024-02-26T08:48:35;7.47;;;5.80;;
39442;SDS011;25147;52.142;9.960;2024-02-26T08:51:04;7.20;;;5.55;;
39442;SDS011;25147;52.142;9.960;2024-02-26T08:53:31;5.93;;;5.10;;
39442;SDS011;25147;52.142;9.960;2024-02-26T08:56:18;5.57;;;4.82;;
39442;SDS011;25147;52.142;9.960;2024-02-26T08:58:46;5.88;;;5.30;;
39442;SDS011;25147;52.142;9.960;2024-02-26T09:01:15;9.25;;;5.57;;
39442;SDS011;25147;52.142;9.960;2024-02-26T09:03:42;6.43;;;4.97;;
39442;SDS011;25147;52.142;9.960;2024-02-26T09:06:08;6.63;;;5.28;;
39442;SDS011;25147;52.142;9.960;2024-02-26T09:08:37;9.27;;;5.43;;
39442;SDS011;25147;52.142;9.960;2024-02-26T09:11:04;6.88;;;5.57;;
39442;SDS011;25147;52.142;9.960;2024-02-26T09:13:31;6.20;;;5.20;;
39442;SDS011;25147;52.142;9.960;2024-02-26T09:15:57;7.22;;;5.28;;
39442;SDS011;25147;52.142;9.960;2024-02-26T09:18:26;5.80;;;5.20;;
39442;SDS011;25147;52.142;9.960;2024-02-26T09:20:54;7.25;;;5.47;;
39442;SDS011;25147;52.142;9.960;2024-02-26T09:23:20;7.00;;;4.90;;
39442;SDS011;25147;52.142;9.960;2024-02-26T09:25:47;7.97;;;5.13;;
39442;SDS011;25147;52.142;9.960;2024-02-26T09:28:14;5.45;;;4.68;;
39442;SDS011;25147;52.142;9.960;2024-02-26T09:30:42;5.65;;;4.88;;
39442;SDS011;25147;52.142;9.960;2024-02-26T09:33:09;11.57;;;5.47;;
39442;SDS011;25147;52.142;9.960;2024-02-26T09:35:38;7.50;;;5.20;;
39442;SDS011;25147;52.142;9.960;2024-02-26T09:38:05;6.68;;;4.72;;
39442;SDS011;25147;52.142;9.960;2024-02-26T09:40:31;6.72;;;5.15;;
39442;SDS011;25147;52.142;9.960;2024-02-26T09:42:59;8.32;;;6.05;;
39442;SDS011;25147;52.142;9.960;2024-02-26T09:45:27;6.85;;;5.60;;
39442;SDS011;25147;52.142;9.960;2024-02-26T09:47:56;8.30;;;5.88;;
39442;SDS011;25147;52.142;9.960;2024-02-26T09:50:23;7.55;;;5.07;;
39442;SDS011;25147;52.142;9.960;2024-02-26T09:52:52;5.93;;;4.32;;
39442;SDS011;25147;52.142;9.960;2024-02-26T09:55:20;6.00;;;4.60;;
39442;SDS011;25147;52.142;9.960;2024-02-26T09:57:47;6.35;;;4.55;;
39442;SDS011;25147;52.142;9.960;2024-02-26T10:00:18;6.13;;;5.50;;
39442;SDS011;25147;52.142;9.960;2024-02-26T10:02:45;5.45;;;4.43;;
39442;SDS011;25147;52.142;9.960;2024-02-26T10:05:13;5.22;;;4.45;;
39442;SDS011;25147;52.142;9.960;2024-02-26T10:07:43;6.85;;;4.88;;
39442;SDS011;25147;52.142;9.960;2024-02-26T10:10:12;5.20;;;4.70;;
39442;SDS011;25147;52.142;9.960;2024-02-26T10:12:40;5.90;;;4.97;;
39442;SDS011;25147;52.142;9.960;2024-02-26T10:15:06;5.20;;;4.53;;
39442;SDS011;25147;52.142;9.960;2024-02-26T10:17:34;5.88;;;5.07;;
39442;SDS011;25147;52.142;9.960;2024-02-26T10:20:11;5.32;;;4.82;;
39442;SDS011;25147;52.142;9.960;2024-02-26T10:22:40;5.30;;;4.53;;
39442;SDS011;25147;52.142;9.960;2024-02-26T10:25:07;5.93;;;4.75;;
39442;SDS011;25147;52.142;9.960;2024-02-26T10:27:36;6.07;;;4.30;;
39442;SDS011;25147;52.142;9.960;2024-02-26T10:30:03;5.05;;;4.13;;
39442;SDS011;25147;52.142;9.960;2024-02-26T10:32:30;5.47;;;4.55;;
39442;SDS011;25147;52.142;9.960;2024-02-26T10:34:58;7.40;;;5.55;;
39442;SDS011;25147;52.142;9.960;2024-02-26T10:37:25;9.63;;;5.85;;
39442;SDS011;25147;52.142;9.960;2024-02-26T10:39:52;7.90;;;5.80;;
39442;SDS011;25147;52.142;9.960;2024-02-26T10:42:19;6.68;;;4.60;;
39442;SDS011;25147;52.142;9.960;2024-02-26T10:44:47;4.78;;;4.38;;
39442;SDS011;25147;52.142;9.960;2024-02-26T10:47:14;4.38;;;3.47;;
39442;SDS011;25147;52.142;9.960;2024-02-26T10:49:44;4.03;;;3.70;;
39442;SDS011;25147;52.142;9.960;2024-02-26T10:52:13;6.13;;;3.17;;
39442;SDS011;25147;52.142;9.960;2024-02-26T10:54:41;4.50;;;3.33;;
39442;SDS011;25147;52.142;9.960;2024-02-26T10:57:09;4.32;;;3.50;;
39442;SDS011;25147;52.142;9.960;2024-02-26T10:59:38;3.67;;;3.38;;
39442;SDS011;25147;52.142;9.960;2024-02-26T11:02:09;5.07;;;3.50;;
39442;SDS011;25147;52.142;9.960;2024-02-26T11:04:36;4.30;;;3.40;;
39442;SDS011;25147;52.142;9.960;2024-02-26T11:07:04;3.38;;;3.10;;
39442;SDS011;25147;52.142;9.960;2024-02-26T11:09:33;2.97;;;2.78;;
39442;SDS011;25147;52.142;9.960;2024-02-26T11:12:01;3.55;;;3.25;;
39442;SDS011;25147;52.142;9.960;2024-02-26T11:14:33;4.22;;;3.35;;
39442;SDS011;25147;52.142;9.960;2024-02-26T11:17:00;4.68;;;3.25;;
39442;SDS011;25147;52.142;9.960;2024-02-26T11:19:30;5.40;;;3.13;;
39442;SDS011;25147;52.142;9.960;2024-02-26T11:21:58;4.80;;;3.40;;
39442;SDS011;25147;52.142;9.960;2024-02-26T11:24:26;5.45;;;3.25;;
39442;SDS011;25147;52.142;9.960;2024-02-26T11:26:54;7.20;;;4.07;;
39442;SDS011;25147;52.142;9.960;2024-02-26T11:29:25;4.15;;;3.30;;
39442;SDS011;25147;52.142;9.960;2024-02-26T11:31:56;4.90;;;3.60;;
39442;SDS011;25147;52.142;9.960;2024-02-26T11:34:26;4.20;;;3.30;;
39442;SDS011;25147;52.142;9.960;2024-02-26T11:36:55;3.20;;;2.88;;
39442;SDS011;25147;52.142;9.960;2024-02-26T11:39:22;3.47;;;3.17;;
39442;SDS011;25147;52.142;9.960;2024-02-26T11:41:49;3.63;;;3.13;;
39442;SDS011;25147;52.142;9.960;2024-02-26T11:44:22;3.42;;;3.13;;
39442;SDS011;25147;52.142;9.960;2024-02-26T11:46:55;3.17;;;2.70;;
39442;SDS011;25147;52.142;9.960;2024-02-26T11:49:30;3.30;;;2.80;;
39442;SDS011;25147;52.142;9.960;2024-02-26T11:51:59;4.47;;;3.10;;
39442;SDS011;25147;52.142;9.960;2024-02-26T11:57:23;3.97;;;2.92;;
39442;SDS011;25147;52.142;9.960;2024-02-26T11:59:53;4.30;;;3.00;;
39442;SDS011;25147;52.142;9.960;2024-02-26T12:05:07;4.32;;;2.55;;
39442;SDS011;25147;52.142;9.960;2024-02-26T12:07:40;4.97;;;3.00;;
39442;SDS011;25147;52.142;9.960;2024-02-26T12:12:54;3.47;;;3.17;;
39442;SDS011;25147;52.142;9.960;2024-02-26T12:15:27;4.72;;;2.88;;
39442;SDS011;25147;52.142;9.960;2024-02-26T12:17:58;5.68;;;2.97;;
39442;SDS011;25147;52.142;9.960;2024-02-26T12:20:26;4.85;;;3.08;;
39442;SDS011;25147;52.142;9.960;2024-02-26T12:22:54;4.93;;;3.55;;
39442;SDS011;25147;52.142;9.960;2024-02-26T12:25:23;3.67;;;3.33;;
39442;SDS011;25147;52.142;9.960;2024-02-26T12:27:51;3.67;;;3.22;;
39442;SDS011;25147;52.142;9.960;2024-02-26T12:30:18;5.78;;;3.50;;
39442;SDS011;25147;52.142;9.960;2024-02-26T12:32:45;3.33;;;3.03;;
39442;SDS011;25147;52.142;9.960;2024-02-26T12:35:13;3.33;;;3.03;;
39442;SDS011;25147;52.142;9.960;2024-02-26T12:37:41;5.28;;;3.83;;
39442;SDS011;25147;52.142;9.960;2024-02-26T12:40:10;3.97;;;3.58;;
39442;SDS011;25147;52.142;9.960;2024-02-26T12:42:38;4.28;;;3.88;;
39442;SDS011;25147;52.142;9.960;2024-02-26T12:45:06;6.20;;;4.45;;
39442;SDS011;25147;52.142;9.960;2024-02-26T12:47:35;4.78;;;4.05;;
39442;SDS011;25147;52.142;9.960;2024-02-26T12:50:03;4.82;;;4.38;;
39442;SDS011;25147;52.142;9.960;2024-02-26T12:52:31;4.97;;;4.35;;
39442;SDS011;25147;52.142;9.960;2024-02-26T12:54:59;5.53;;;4.80;;
39442;SDS011;25147;52.142;9.960;2024-02-26T12:57:28;6.57;;;5.13;;
39442;SDS011;25147;52.142;9.960;2024-02-26T12:59:56;5.85;;;4.95;;
39442;SDS011;25147;52.142;9.960;2024-02-26T13:02:24;6.43;;;5.15;;
39442;SDS011;25147;52.142;9.960;2024-02-26T13:04:51;7.55;;;5.32;;
39442;SDS011;25147;52.142;9.960;2024-02-26T13:07:18;6.22;;;5.03;;
39442;SDS011;25147;52.142;9.960;2024-02-26T13:09:45;7.20;;;5.82;;
39442;SDS011;25147;52.142;9.960;2024-02-26T13:12:12;7.80;;;5.65;;
39442;SDS011;25147;52.142;9.960;2024-02-26T13:14:41;7.68;;;5.72;;
39442;SDS011;25147;52.142;9.960;2024-02-26T13:17:08;5.75;;;5.25;;
39442;SDS011;25147;52.142;9.960;2024-02-26T13:19:34;7.47;;;5.18;;
39442;SDS011;25147;52.142;9.960;2024-02-26T13:22:04;6.85;;;5.38;;
39442;SDS011;25147;52.142;9.960;2024-02-26T13:24:32;6.30;;;5.68;;
39442;SDS011;25147;52.142;9.960;2024-02-26T13:26:59;9.00;;;5.90;;
39442;SDS011;25147;52.142;9.960;2024-02-26T13:29:28;7.80;;;5.25;;
39442;SDS011;25147;52.142;9.960;2024-02-26T13:31:58;8.00;;;6.07;;
39442;SDS011;25147;52.142;9.960;2024-02-26T13:34:25;6.28;;;5.50;;
39442;SDS011;25147;52.142;9.960;2024-02-26T13:36:53;6.90;;;5.57;;
39442;SDS011;25147;52.142;9.960;2024-02-26T13:39:23;7.22;;;6.32;;
39442;SDS011;25147;52.142;9.960;2024-02-26T13:41:52;6.75;;;5.38;;
39442;SDS011;25147;52.142;9.960;2024-02-26T13:44:19;7.43;;;5.88;;
39442;SDS011;25147;52.142;9.960;2024-02-26T13:46:47;6.53;;;5.78;;
39442;SDS011;25147;52.142;9.960;2024-02-26T13:49:16;9.98;;;5.85;;
39442;SDS011;25147;52.142;9.960;2024-02-26T13:51:42;11.25;;;5.97;;
39442;SDS011;25147;52.142;9.960;2024-02-26T13:54:09;7.53;;;5.78;;
39442;SDS011;25147;52.142;9.960;2024-02-26T13:56:36;7.72;;;6.25;;
39442;SDS011;25147;52.142;9.960;2024-02-26T13:59:04;7.30;;;6.60;;
39442;SDS011;25147;52.142;9.960;2024-02-26T14:01:30;7.85;;;6.65;;
39442;SDS011;25147;52.142;9.960;2024-02-26T14:03:58;8.50;;;6.32;;
39442;SDS011;25147;52.142;9.960;2024-02-26T14:06:28;7.47;;;6.38;;
39442;SDS011;25147;52.142;9.960;2024-02-26T14:08:55;9.77;;;6.60;;
39442;SDS011;25147;52.142;9.960;2024-02-26T14:11:22;8.13;;;6.40;;
39442;SDS011;25147;52.142;9.960;2024-02-26T14:13:50;8.50;;;6.97;;
39442;SDS011;25147;52.142;9.960;2024-02-26T14:16:17;7.45;;;6.18;;
39442;SDS011;25147;52.142;9.960;2024-02-26T14:18:45;8.98;;;6.85;;
39442;SDS011;25147;52.142;9.960;2024-02-26T14:21:12;8.73;;;6.68;;
39442;SDS011;25147;52.142;9.960;2024-02-26T14:23:40;8.25;;;6.78;;
39442;SDS011;25147;52.142;9.960;2024-02-26T14:26:09;9.90;;;7.50;;
39442;SDS011;25147;52.142;9.960;2024-02-26T14:28:37;8.10;;;7.28;;
39442;SDS011;25147;52.142;9.960;2024-02-26T14:31:05;7.70;;;6.90;;
39442;SDS011;25147;52.142;9.960;2024-02-26T14:33:36;7.95;;;7.15;;
39442;SDS011;25147;52.142;9.960;2024-02-26T14:36:04;11.38;;;7.97;;
39442;SDS011;25147;52.142;9.960;2024-02-26T14:38:32;8.20;;;7.40;;
39442;SDS011;25147;52.142;9.960;2024-02-26T14:41:00;9.93;;;8.30;;
39442;SDS011;25147;52.142;9.960;2024-02-26T14:43:27;8.52;;;7.65;;
39442;SDS011;25147;52.142;9.960;2024-02-26T14:45:55;11.00;;;7.82;;
39442;SDS011;25147;52.142;9.960;2024-02-26T14:48:22;12.40;;;8.45;;
39442;SDS011;25147;52.142;9.960;2024-02-26T14:50:49;9.55;;;8.15;;
39442;SDS011;25147;52.142;9.960;2024-02-26T14:53:17;9.23;;;8.10;;
39442;SDS011;25147;52.142;9.960;2024-02-26T14:55:44;9.00;;;8.10;;
39442;SDS011;25147;52.142;9.960;2024-02-26T14:58:12;10.02;;;7.97;;